sensor_id;sensor_type;location;lat;lon;timestamp;P1;durP1;ratioP1;P2;durP2;ratioP2
5638;SDS011;2841;44.526;11.360;2022-08-18T00:01:39;10.60;;;3.57;;
5638;SDS011;2841;44.526;11.360;2022-08-18T00:04:06;6.20;;;3.83;;
5638;SDS011;2841;44.526;11.360;2022-08-18T00:06:33;6.30;;;3.10;;
5638;SDS011;2841;44.526;11.360;2022-08-18T00:09:01;9.47;;;3.03;;
5638;SDS011;2841;44.526;11.360;2022-08-18T00:11:31;8.90;;;3.70;;
5638;SDS011;2841;44.526;11.360;2022-08-18T00:14:01;13.13;;;3.20;;
5638;SDS011;2841;44.526;11.360;2022-08-18T00:16:29;4.67;;;2.97;;
5638;SDS011;2841;44.526;11.360;2022-08-18T00:18:56;8.80;;;3.70;;
5638;SDS011;2841;44.526;11.360;2022-08-18T00:21:23;6.40;;;3.20;;
5638;SDS011;2841;44.526;11.360;2022-08-18T00:23:50;7.87;;;3.63;;
5638;SDS011;2841;44.526;11.360;2022-08-18T00:26:17;12.20;;;3.90;;
5638;SDS011;2841;44.526;11.360;2022-08-18T00:28:43;7.47;;;3.63;;
5638;SDS011;2841;44.526;11.360;2022-08-18T00:31:12;6.97;;;3.73;;
5638;SDS011;2841;44.526;11.360;2022-08-18T00:33:39;6.33;;;3.47;;
5638;SDS011;2841;44.526;11.360;2022-08-18T00:36:07;9.60;;;4.10;;
5638;SDS011;2841;44.526;11.360;2022-08-18T00:38:35;6.60;;;2.97;;
5638;SDS011;2841;44.526;11.360;2022-08-18T00:41:02;6.63;;;4.17;;
5638;SDS011;2841;44.526;11.360;2022-08-18T00:43:31;15.63;;;3.97;;
5638;SDS011;2841;44.526;11.360;2022-08-18T00:46:05;9.60;;;3.30;;
5638;SDS011;2841;44.526;11.360;2022-08-18T00:48:35;6.17;;;2.87;;
5638;SDS011;2841;44.526;11.360;2022-08-18T00:51:03;8.80;;;3.47;;
5638;SDS011;2841;44.526;11.360;2022-08-18T00:53:37;6.90;;;3.20;;
5638;SDS011;2841;44.526;11.360;2022-08-18T00:56:10;13.93;;;3.70;;
5638;SDS011;2841;44.526;11.360;2022-08-18T00:58:42;8.93;;;3.60;;
5638;SDS011;2841;44.526;11.360;2022-08-18T01:01:14;9.40;;;4.00;;
5638;SDS011;2841;44.526;11.360;2022-08-18T01:03:43;10.93;;;4.90;;
5638;SDS011;2841;44.526;11.360;2022-08-18T01:06:19;8.30;;;4.30;;
5638;SDS011;2841;44.526;11.360;2022-08-18T01:08:52;15.73;;;5.03;;
5638;SDS011;2841;44.526;11.360;2022-08-18T01:11:20;8.60;;;4.47;;
5638;SDS011;2841;44.526;11.360;2022-08-18T01:13:47;8.00;;;4.53;;
5638;SDS011;2841;44.526;11.360;2022-08-18T01:16:14;10.10;;;4.63;;
5638;SDS011;2841;44.526;11.360;2022-08-18T01:19:00;6.80;;;4.80;;
5638;SDS011;2841;44.526;11.360;2022-08-18T01:21:45;12.07;;;5.30;;
5638;SDS011;2841;44.526;11.360;2022-08-18T01:24:17;9.30;;;5.80;;
5638;SDS011;2841;44.526;11.360;2022-08-18T01:27:07;18.10;;;6.53;;
5638;SDS011;2841;44.526;11.360;2022-08-18T01:29:34;8.77;;;5.53;;
5638;SDS011;2841;44.526;11.360;2022-08-18T01:32:02;12.40;;;5.60;;
5638;SDS011;2841;44.526;11.360;2022-08-18T01:34:29;10.60;;;4.40;;
5638;SDS011;2841;44.526;11.360;2022-08-18T01:36:57;13.07;;;5.37;;
5638;SDS011;2841;44.526;11.360;2022-08-18T01:39:25;13.73;;;4.93;;
5638;SDS011;2841;44.526;11.360;2022-08-18T01:41:52;10.57;;;5.57;;
5638;SDS011;2841;44.526;11.360;2022-08-18T01:44:19;6.90;;;5.00;;
5638;SDS011;2841;44.526;11.360;2022-08-18T01:46:46;9.20;;;5.10;;
5638;SDS011;2841;44.526;11.360;2022-08-18T01:49:14;13.20;;;5.00;;
5638;SDS011;2841;44.526;11.360;2022-08-18T01:51:44;12.93;;;6.10;;
5638;SDS011;2841;44.526;11.360;2022-08-18T01:54:13;10.60;;;4.77;;
5638;SDS011;2841;44.526;11.360;2022-08-18T01:56:41;10.20;;;5.93;;
5638;SDS011;2841;44.526;11.360;2022-08-18T01:59:09;10.27;;;6.33;;
5638;SDS011;2841;44.526;11.360;2022-08-18T02:01:38;12.20;;;6.30;;
5638;SDS011;2841;44.526;11.360;2022-08-18T02:04:07;11.13;;;6.10;;
5638;SDS011;2841;44.526;11.360;2022-08-18T02:06:36;10.10;;;5.80;;
5638;SDS011;2841;44.526;11.360;2022-08-18T02:09:04;8.37;;;5.33;;
5638;SDS011;2841;44.526;11.360;2022-08-18T02:11:31;10.67;;;5.20;;
5638;SDS011;2841;44.526;11.360;2022-08-18T02:14:00;23.43;;;5.20;;
5638;SDS011;2841;44.526;11.360;2022-08-18T02:16:27;15.30;;;5.60;;
5638;SDS011;2841;44.526;11.360;2022-08-18T02:18:54;12.57;;;5.97;;
5638;SDS011;2841;44.526;11.360;2022-08-18T02:21:21;10.70;;;5.80;;
5638;SDS011;2841;44.526;11.360;2022-08-18T02:23:48;12.03;;;6.47;;
5638;SDS011;2841;44.526;11.360;2022-08-18T02:26:16;13.40;;;5.60;;
5638;SDS011;2841;44.526;11.360;2022-08-18T02:28:43;20.50;;;6.43;;
5638;SDS011;2841;44.526;11.360;2022-08-18T02:31:13;12.20;;;6.40;;
5638;SDS011;2841;44.526;11.360;2022-08-18T02:33:42;17.23;;;5.83;;
5638;SDS011;2841;44.526;11.360;2022-08-18T02:36:09;14.73;;;6.87;;
5638;SDS011;2841;44.526;11.360;2022-08-18T02:38:37;7.87;;;4.30;;
5638;SDS011;2841;44.526;11.360;2022-08-18T02:41:05;13.23;;;7.30;;
5638;SDS011;2841;44.526;11.360;2022-08-18T02:43:33;10.90;;;4.73;;
5638;SDS011;2841;44.526;11.360;2022-08-18T02:46:00;7.37;;;5.70;;
5638;SDS011;2841;44.526;11.360;2022-08-18T02:48:29;12.13;;;5.40;;
5638;SDS011;2841;44.526;11.360;2022-08-18T02:50:59;11.20;;;5.50;;
5638;SDS011;2841;44.526;11.360;2022-08-18T02:53:27;10.73;;;5.13;;
5638;SDS011;2841;44.526;11.360;2022-08-18T02:55:54;9.57;;;4.33;;
5638;SDS011;2841;44.526;11.360;2022-08-18T02:58:21;8.73;;;3.53;;
5638;SDS011;2841;44.526;11.360;2022-08-18T03:00:48;13.50;;;4.73;;
5638;SDS011;2841;44.526;11.360;2022-08-18T03:03:15;8.20;;;4.27;;
5638;SDS011;2841;44.526;11.360;2022-08-18T03:05:44;7.93;;;3.60;;
5638;SDS011;2841;44.526;11.360;2022-08-18T03:08:11;12.30;;;4.03;;
5638;SDS011;2841;44.526;11.360;2022-08-18T03:10:38;7.87;;;4.17;;
5638;SDS011;2841;44.526;11.360;2022-08-18T03:13:05;12.67;;;4.20;;
5638;SDS011;2841;44.526;11.360;2022-08-18T03:15:32;15.17;;;5.03;;
5638;SDS011;2841;44.526;11.360;2022-08-18T03:17:59;10.33;;;4.73;;
5638;SDS011;2841;44.526;11.360;2022-08-18T03:20:26;9.33;;;3.50;;
5638;SDS011;2841;44.526;11.360;2022-08-18T03:22:54;6.47;;;3.33;;
5638;SDS011;2841;44.526;11.360;2022-08-18T03:25:21;12.60;;;3.80;;
5638;SDS011;2841;44.526;11.360;2022-08-18T03:27:48;6.77;;;3.50;;
5638;SDS011;2841;44.526;11.360;2022-08-18T03:30:15;7.97;;;3.50;;
5638;SDS011;2841;44.526;11.360;2022-08-18T03:32:42;7.43;;;3.60;;
5638;SDS011;2841;44.526;11.360;2022-08-18T03:35:11;6.80;;;3.40;;
5638;SDS011;2841;44.526;11.360;2022-08-18T03:37:38;7.10;;;3.77;;
5638;SDS011;2841;44.526;11.360;2022-08-18T03:40:07;8.70;;;3.53;;
5638;SDS011;2841;44.526;11.360;2022-08-18T03:42:36;22.03;;;5.03;;
5638;SDS011;2841;44.526;11.360;2022-08-18T03:45:03;9.47;;;4.30;;
5638;SDS011;2841;44.526;11.360;2022-08-18T03:47:31;10.47;;;5.20;;
5638;SDS011;2841;44.526;11.360;2022-08-18T03:49:58;10.33;;;5.10;;
5638;SDS011;2841;44.526;11.360;2022-08-18T03:52:25;9.20;;;4.40;;
5638;SDS011;2841;44.526;11.360;2022-08-18T03:54:52;14.33;;;5.70;;
5638;SDS011;2841;44.526;11.360;2022-08-18T03:57:20;7.40;;;4.70;;
5638;SDS011;2841;44.526;11.360;2022-08-18T03:59:47;8.30;;;4.43;;
5638;SDS011;2841;44.526;11.360;2022-08-18T04:02:14;8.97;;;5.20;;
5638;SDS011;2841;44.526;11.360;2022-08-18T04:04:42;13.00;;;4.83;;
5638;SDS011;2841;44.526;11.360;2022-08-18T04:07:10;21.93;;;5.57;;
5638;SDS011;2841;44.526;11.360;2022-08-18T04:09:38;9.60;;;5.27;;
5638;SDS011;2841;44.526;11.360;2022-08-18T04:12:07;9.37;;;5.70;;
5638;SDS011;2841;44.526;11.360;2022-08-18T04:14:38;13.17;;;6.07;;
5638;SDS011;2841;44.526;11.360;2022-08-18T04:17:06;9.80;;;6.43;;
5638;SDS011;2841;44.526;11.360;2022-08-18T04:19:34;8.87;;;6.30;;
5638;SDS011;2841;44.526;11.360;2022-08-18T04:22:02;8.07;;;5.53;;
5638;SDS011;2841;44.526;11.360;2022-08-18T04:24:30;6.10;;;4.70;;
5638;SDS011;2841;44.526;11.360;2022-08-18T04:26:59;12.20;;;6.40;;
5638;SDS011;2841;44.526;11.360;2022-08-18T04:29:30;9.17;;;5.37;;
5638;SDS011;2841;44.526;11.360;2022-08-18T04:31:59;9.87;;;5.50;;
5638;SDS011;2841;44.526;11.360;2022-08-18T04:34:28;7.90;;;4.40;;
5638;SDS011;2841;44.526;11.360;2022-08-18T04:36:57;14.83;;;4.70;;
5638;SDS011;2841;44.526;11.360;2022-08-18T04:39:24;13.43;;;5.83;;
5638;SDS011;2841;44.526;11.360;2022-08-18T04:41:51;10.50;;;5.83;;
5638;SDS011;2841;44.526;11.360;2022-08-18T04:44:19;10.40;;;6.57;;
5638;SDS011;2841;44.526;11.360;2022-08-18T04:46:47;15.53;;;7.10;;
5638;SDS011;2841;44.526;11.360;2022-08-18T04:49:17;33.47;;;6.83;;
5638;SDS011;2841;44.526;11.360;2022-08-18T04:51:46;9.20;;;5.83;;
5638;SDS011;2841;44.526;11.360;2022-08-18T04:54:36;13.70;;;6.00;;
5638;SDS011;2841;44.526;11.360;2022-08-18T04:57:07;17.33;;;6.13;;
5638;SDS011;2841;44.526;11.360;2022-08-18T04:59:35;21.90;;;5.57;;
5638;SDS011;2841;44.526;11.360;2022-08-18T05:02:04;8.33;;;5.00;;
5638;SDS011;2841;44.526;11.360;2022-08-18T05:04:34;14.77;;;6.30;;
5638;SDS011;2841;44.526;11.360;2022-08-18T05:07:03;19.43;;;5.37;;
5638;SDS011;2841;44.526;11.360;2022-08-18T05:09:30;9.50;;;6.23;;
5638;SDS011;2841;44.526;11.360;2022-08-18T05:12:00;9.23;;;6.10;;
5638;SDS011;2841;44.526;11.360;2022-08-18T05:14:28;10.93;;;6.13;;
5638;SDS011;2841;44.526;11.360;2022-08-18T05:16:56;15.50;;;7.07;;
5638;SDS011;2841;44.526;11.360;2022-08-18T05:19:24;14.07;;;6.37;;
5638;SDS011;2841;44.526;11.360;2022-08-18T05:21:53;10.60;;;6.37;;
5638;SDS011;2841;44.526;11.360;2022-08-18T05:24:21;10.40;;;6.33;;
5638;SDS011;2841;44.526;11.360;2022-08-18T05:26:49;9.40;;;5.83;;
5638;SDS011;2841;44.526;11.360;2022-08-18T05:29:17;20.00;;;4.63;;
5638;SDS011;2841;44.526;11.360;2022-08-18T05:31:45;12.83;;;6.37;;
5638;SDS011;2841;44.526;11.360;2022-08-18T05:34:13;12.87;;;5.60;;
5638;SDS011;2841;44.526;11.360;2022-08-18T05:37:02;14.50;;;6.93;;
5638;SDS011;2841;44.526;11.360;2022-08-18T05:39:44;12.77;;;6.87;;
5638;SDS011;2841;44.526;11.360;2022-08-18T05:42:19;36.73;;;9.20;;
5638;SDS011;2841;44.526;11.360;2022-08-18T05:44:49;15.13;;;7.30;;
5638;SDS011;2841;44.526;11.360;2022-08-18T05:47:18;22.50;;;8.83;;
5638;SDS011;2841;44.526;11.360;2022-08-18T05:49:51;27.93;;;10.07;;
5638;SDS011;2841;44.526;11.360;2022-08-18T05:52:22;30.10;;;7.73;;
5638;SDS011;2841;44.526;11.360;2022-08-18T05:55:02;27.57;;;8.47;;
5638;SDS011;2841;44.526;11.360;2022-08-18T05:57:50;15.07;;;7.83;;
5638;SDS011;2841;44.526;11.360;2022-08-18T06:00:20;23.63;;;6.90;;
5638;SDS011;2841;44.526;11.360;2022-08-18T06:02:50;15.00;;;9.13;;
5638;SDS011;2841;44.526;11.360;2022-08-18T06:05:22;20.00;;;9.33;;
5638;SDS011;2841;44.526;11.360;2022-08-18T06:07:56;20.73;;;9.67;;
5638;SDS011;2841;44.526;11.360;2022-08-18T06:10:25;20.87;;;8.90;;
5638;SDS011;2841;44.526;11.360;2022-08-18T06:12:53;26.13;;;11.30;;
5638;SDS011;2841;44.526;11.360;2022-08-18T06:15:25;33.80;;;10.90;;
5638;SDS011;2841;44.526;11.360;2022-08-18T06:18:04;21.97;;;10.97;;
5638;SDS011;2841;44.526;11.360;2022-08-18T06:21:00;28.30;;;12.10;;
5638;SDS011;2841;44.526;11.360;2022-08-18T06:23:41;26.23;;;10.93;;
5638;SDS011;2841;44.526;11.360;2022-08-18T06:26:15;27.20;;;11.10;;
5638;SDS011;2841;44.526;11.360;2022-08-18T06:28:57;13.63;;;7.97;;
5638;SDS011;2841;44.526;11.360;2022-08-18T06:31:34;14.47;;;8.10;;
5638;SDS011;2841;44.526;11.360;2022-08-18T06:34:14;30.03;;;7.33;;
5638;SDS011;2841;44.526;11.360;2022-08-18T06:36:54;20.93;;;8.30;;
5638;SDS011;2841;44.526;11.360;2022-08-18T06:39:28;15.67;;;7.53;;
5638;SDS011;2841;44.526;11.360;2022-08-18T06:42:00;12.83;;;7.20;;
5638;SDS011;2841;44.526;11.360;2022-08-18T06:44:31;14.13;;;7.23;;
5638;SDS011;2841;44.526;11.360;2022-08-18T06:47:02;14.90;;;7.83;;
5638;SDS011;2841;44.526;11.360;2022-08-18T06:49:39;20.70;;;8.20;;
5638;SDS011;2841;44.526;11.360;2022-08-18T06:52:20;13.07;;;7.63;;
5638;SDS011;2841;44.526;11.360;2022-08-18T06:54:51;19.07;;;8.83;;
5638;SDS011;2841;44.526;11.360;2022-08-18T06:57:24;11.60;;;7.47;;
5638;SDS011;2841;44.526;11.360;2022-08-18T06:59:54;26.47;;;7.93;;
5638;SDS011;2841;44.526;11.360;2022-08-18T07:02:24;16.43;;;8.37;;
5638;SDS011;2841;44.526;11.360;2022-08-18T07:05:00;12.07;;;7.70;;
5638;SDS011;2841;44.526;11.360;2022-08-18T07:07:31;19.63;;;8.47;;
5638;SDS011;2841;44.526;11.360;2022-08-18T07:10:03;32.07;;;9.03;;
5638;SDS011;2841;44.526;11.360;2022-08-18T07:12:31;25.67;;;7.07;;
5638;SDS011;2841;44.526;11.360;2022-08-18T07:15:00;15.60;;;8.83;;
5638;SDS011;2841;44.526;11.360;2022-08-18T07:17:30;17.00;;;7.37;;
5638;SDS011;2841;44.526;11.360;2022-08-18T07:19:59;14.40;;;7.80;;
5638;SDS011;2841;44.526;11.360;2022-08-18T07:22:31;22.47;;;8.97;;
5638;SDS011;2841;44.526;11.360;2022-08-18T07:25:18;20.10;;;11.60;;
5638;SDS011;2841;44.526;11.360;2022-08-18T07:27:49;17.90;;;9.60;;
5638;SDS011;2841;44.526;11.360;2022-08-18T07:30:27;19.63;;;9.87;;
5638;SDS011;2841;44.526;11.360;2022-08-18T07:32:58;19.07;;;9.80;;
5638;SDS011;2841;44.526;11.360;2022-08-18T07:35:32;18.17;;;10.13;;
5638;SDS011;2841;44.526;11.360;2022-08-18T07:38:06;21.80;;;11.13;;
5638;SDS011;2841;44.526;11.360;2022-08-18T07:40:44;28.30;;;12.00;;
5638;SDS011;2841;44.526;11.360;2022-08-18T07:43:19;16.97;;;8.67;;
5638;SDS011;2841;44.526;11.360;2022-08-18T07:45:51;19.10;;;10.20;;
5638;SDS011;2841;44.526;11.360;2022-08-18T07:48:27;23.83;;;12.60;;
5638;SDS011;2841;44.526;11.360;2022-08-18T07:50:58;25.50;;;13.30;;
5638;SDS011;2841;44.526;11.360;2022-08-18T07:53:45;21.37;;;12.37;;
5638;SDS011;2841;44.526;11.360;2022-08-18T07:56:21;21.60;;;11.27;;
5638;SDS011;2841;44.526;11.360;2022-08-18T07:58:57;17.47;;;11.17;;
5638;SDS011;2841;44.526;11.360;2022-08-18T08:01:31;15.60;;;9.97;;
5638;SDS011;2841;44.526;11.360;2022-08-18T08:04:14;24.50;;;12.10;;
5638;SDS011;2841;44.526;11.360;2022-08-18T08:06:51;21.53;;;12.90;;
5638;SDS011;2841;44.526;11.360;2022-08-18T08:09:27;24.00;;;13.50;;
5638;SDS011;2841;44.526;11.360;2022-08-18T08:12:06;17.87;;;11.63;;
5638;SDS011;2841;44.526;11.360;2022-08-18T08:14:40;27.37;;;12.77;;
5638;SDS011;2841;44.526;11.360;2022-08-18T08:17:11;19.77;;;10.77;;
5638;SDS011;2841;44.526;11.360;2022-08-18T08:19:58;38.00;;;12.73;;
5638;SDS011;2841;44.526;11.360;2022-08-18T08:22:38;20.50;;;10.70;;
5638;SDS011;2841;44.526;11.360;2022-08-18T08:25:11;32.73;;;13.80;;
5638;SDS011;2841;44.526;11.360;2022-08-18T08:27:50;25.03;;;11.80;;
5638;SDS011;2841;44.526;11.360;2022-08-18T08:30:27;22.97;;;12.70;;
5638;SDS011;2841;44.526;11.360;2022-08-18T08:33:00;19.23;;;11.17;;
5638;SDS011;2841;44.526;11.360;2022-08-18T08:35:36;21.30;;;13.20;;
5638;SDS011;2841;44.526;11.360;2022-08-18T08:38:11;28.80;;;13.60;;
5638;SDS011;2841;44.526;11.360;2022-08-18T08:40:44;22.43;;;10.83;;
5638;SDS011;2841;44.526;11.360;2022-08-18T08:43:20;23.27;;;12.03;;
5638;SDS011;2841;44.526;11.360;2022-08-18T08:45:57;20.07;;;12.63;;
5638;SDS011;2841;44.526;11.360;2022-08-18T08:48:33;25.13;;;12.97;;
5638;SDS011;2841;44.526;11.360;2022-08-18T08:51:10;26.93;;;12.60;;
5638;SDS011;2841;44.526;11.360;2022-08-18T08:53:50;31.37;;;14.70;;
5638;SDS011;2841;44.526;11.360;2022-08-18T08:56:22;24.03;;;14.07;;
5638;SDS011;2841;44.526;11.360;2022-08-18T08:58:56;28.30;;;16.50;;
5638;SDS011;2841;44.526;11.360;2022-08-18T09:01:26;32.63;;;15.70;;
5638;SDS011;2841;44.526;11.360;2022-08-18T09:04:00;21.80;;;14.90;;
5638;SDS011;2841;44.526;11.360;2022-08-18T09:06:41;24.33;;;15.27;;
5638;SDS011;2841;44.526;11.360;2022-08-18T09:09:21;35.20;;;17.67;;
5638;SDS011;2841;44.526;11.360;2022-08-18T09:12:04;29.13;;;15.70;;
5638;SDS011;2841;44.526;11.360;2022-08-18T09:14:59;30.67;;;16.30;;
5638;SDS011;2841;44.526;11.360;2022-08-18T09:21:00;29.97;;;14.97;;
5638;SDS011;2841;44.526;11.360;2022-08-18T09:23:34;40.00;;;17.50;;
5638;SDS011;2841;44.526;11.360;2022-08-18T09:26:23;26.87;;;17.10;;
5638;SDS011;2841;44.526;11.360;2022-08-18T09:28:55;40.63;;;17.13;;
5638;SDS011;2841;44.526;11.360;2022-08-18T09:31:26;43.37;;;13.40;;
5638;SDS011;2841;44.526;11.360;2022-08-18T09:36:55;41.60;;;13.97;;
5638;SDS011;2841;44.526;11.360;2022-08-18T09:39:30;24.70;;;13.13;;
5638;SDS011;2841;44.526;11.360;2022-08-18T09:42:26;21.30;;;12.53;;
5638;SDS011;2841;44.526;11.360;2022-08-18T09:44:59;20.53;;;12.10;;
5638;SDS011;2841;44.526;11.360;2022-08-18T09:50:55;16.10;;;8.43;;
5638;SDS011;2841;44.526;11.360;2022-08-18T10:05:55;6.90;;;2.10;;
5638;SDS011;2841;44.526;11.360;2022-08-18T10:11:36;19.03;;;2.17;;
5638;SDS011;2841;44.526;11.360;2022-08-18T10:14:21;4.10;;;1.87;;
5638;SDS011;2841;44.526;11.360;2022-08-18T10:17:00;5.33;;;2.13;;
5638;SDS011;2841;44.526;11.360;2022-08-18T10:19:39;5.30;;;2.63;;
5638;SDS011;2841;44.526;11.360;2022-08-18T10:22:14;4.67;;;1.87;;
5638;SDS011;2841;44.526;11.360;2022-08-18T10:25:03;5.00;;;1.50;;
5638;SDS011;2841;44.526;11.360;2022-08-18T10:27:36;3.30;;;1.23;;
5638;SDS011;2841;44.526;11.360;2022-08-18T10:39:13;6.17;;;2.03;;
5638;SDS011;2841;44.526;11.360;2022-08-18T10:41:47;12.83;;;1.90;;
5638;SDS011;2841;44.526;11.360;2022-08-18T10:44:28;3.83;;;2.20;;
5638;SDS011;2841;44.526;11.360;2022-08-18T10:46:58;9.50;;;2.00;;
5638;SDS011;2841;44.526;11.360;2022-08-18T10:49:26;6.97;;;2.03;;
5638;SDS011;2841;44.526;11.360;2022-08-18T10:55:11;5.00;;;1.80;;
5638;SDS011;2841;44.526;11.360;2022-08-18T11:01:07;4.90;;;1.00;;
5638;SDS011;2841;44.526;11.360;2022-08-18T11:03:56;3.80;;;1.17;;
5638;SDS011;2841;44.526;11.360;2022-08-18T11:06:28;5.63;;;1.23;;
5638;SDS011;2841;44.526;11.360;2022-08-18T11:09:05;2.83;;;1.00;;
5638;SDS011;2841;44.526;11.360;2022-08-18T11:11:35;5.53;;;1.63;;
5638;SDS011;2841;44.526;11.360;2022-08-18T11:14:14;3.67;;;1.57;;
5638;SDS011;2841;44.526;11.360;2022-08-18T11:16:58;12.63;;;1.73;;
5638;SDS011;2841;44.526;11.360;2022-08-18T11:19:34;8.40;;;1.50;;
5638;SDS011;2841;44.526;11.360;2022-08-18T11:22:03;3.60;;;1.03;;
5638;SDS011;2841;44.526;11.360;2022-08-18T11:24:31;4.33;;;1.60;;
5638;SDS011;2841;44.526;11.360;2022-08-18T11:27:02;2.10;;;0.97;;
5638;SDS011;2841;44.526;11.360;2022-08-18T11:29:30;9.43;;;1.53;;
5638;SDS011;2841;44.526;11.360;2022-08-18T11:32:02;5.43;;;1.93;;
5638;SDS011;2841;44.526;11.360;2022-08-18T11:34:35;3.60;;;1.40;;
5638;SDS011;2841;44.526;11.360;2022-08-18T11:37:06;11.30;;;1.53;;
5638;SDS011;2841;44.526;11.360;2022-08-18T11:39:41;11.03;;;1.37;;
5638;SDS011;2841;44.526;11.360;2022-08-18T11:42:15;3.40;;;1.60;;
5638;SDS011;2841;44.526;11.360;2022-08-18T11:44:43;5.17;;;1.40;;
5638;SDS011;2841;44.526;11.360;2022-08-18T11:47:13;3.10;;;1.33;;
5638;SDS011;2841;44.526;11.360;2022-08-18T11:49:51;8.50;;;1.23;;
5638;SDS011;2841;44.526;11.360;2022-08-18T11:52:22;4.07;;;1.63;;
5638;SDS011;2841;44.526;11.360;2022-08-18T11:54:51;2.10;;;0.90;;
5638;SDS011;2841;44.526;11.360;2022-08-18T12:00:35;3.07;;;1.27;;
5638;SDS011;2841;44.526;11.360;2022-08-18T12:03:08;2.97;;;1.00;;
5638;SDS011;2841;44.526;11.360;2022-08-18T12:05:44;3.23;;;0.93;;
5638;SDS011;2841;44.526;11.360;2022-08-18T12:08:21;3.13;;;1.10;;
5638;SDS011;2841;44.526;11.360;2022-08-18T12:11:04;4.33;;;1.00;;
5638;SDS011;2841;44.526;11.360;2022-08-18T12:13:41;2.40;;;0.83;;
5638;SDS011;2841;44.526;11.360;2022-08-18T12:16:11;5.67;;;1.53;;
5638;SDS011;2841;44.526;11.360;2022-08-18T12:18:40;4.50;;;1.43;;
5638;SDS011;2841;44.526;11.360;2022-08-18T12:21:07;7.43;;;1.80;;
5638;SDS011;2841;44.526;11.360;2022-08-18T12:23:36;8.50;;;1.50;;
5638;SDS011;2841;44.526;11.360;2022-08-18T12:26:06;4.93;;;1.50;;
5638;SDS011;2841;44.526;11.360;2022-08-18T12:28:34;2.17;;;0.93;;
5638;SDS011;2841;44.526;11.360;2022-08-18T12:31:02;3.07;;;1.50;;
5638;SDS011;2841;44.526;11.360;2022-08-18T12:33:29;9.10;;;2.50;;
5638;SDS011;2841;44.526;11.360;2022-08-18T12:35:56;4.93;;;1.40;;
5638;SDS011;2841;44.526;11.360;2022-08-18T12:38:24;6.00;;;1.30;;
5638;SDS011;2841;44.526;11.360;2022-08-18T12:40:51;2.20;;;1.10;;
5638;SDS011;2841;44.526;11.360;2022-08-18T12:43:18;4.13;;;1.13;;
5638;SDS011;2841;44.526;11.360;2022-08-18T12:45:45;4.60;;;1.43;;
5638;SDS011;2841;44.526;11.360;2022-08-18T12:48:14;7.43;;;1.80;;
5638;SDS011;2841;44.526;11.360;2022-08-18T12:50:41;9.10;;;1.63;;
5638;SDS011;2841;44.526;11.360;2022-08-18T12:53:09;2.87;;;1.23;;
5638;SDS011;2841;44.526;11.360;2022-08-18T12:55:39;3.40;;;1.47;;
5638;SDS011;2841;44.526;11.360;2022-08-18T12:58:07;2.53;;;1.20;;
5638;SDS011;2841;44.526;11.360;2022-08-18T13:00:34;2.10;;;1.00;;
5638;SDS011;2841;44.526;11.360;2022-08-18T13:03:03;4.17;;;1.20;;
5638;SDS011;2841;44.526;11.360;2022-08-18T13:05:31;5.30;;;1.20;;
5638;SDS011;2841;44.526;11.360;2022-08-18T13:08:00;3.13;;;1.13;;
5638;SDS011;2841;44.526;11.360;2022-08-18T13:10:28;3.73;;;1.20;;
5638;SDS011;2841;44.526;11.360;2022-08-18T13:12:55;4.17;;;1.30;;
5638;SDS011;2841;44.526;11.360;2022-08-18T13:15:22;7.87;;;1.07;;
5638;SDS011;2841;44.526;11.360;2022-08-18T13:17:49;2.27;;;1.10;;
5638;SDS011;2841;44.526;11.360;2022-08-18T13:20:16;3.00;;;1.50;;
5638;SDS011;2841;44.526;11.360;2022-08-18T13:22:46;4.07;;;1.40;;
5638;SDS011;2841;44.526;11.360;2022-08-18T13:25:14;4.47;;;1.77;;
5638;SDS011;2841;44.526;11.360;2022-08-18T13:27:42;5.03;;;1.60;;
5638;SDS011;2841;44.526;11.360;2022-08-18T13:30:10;5.50;;;1.40;;
5638;SDS011;2841;44.526;11.360;2022-08-18T13:32:39;3.00;;;0.93;;
5638;SDS011;2841;44.526;11.360;2022-08-18T13:35:07;3.50;;;1.53;;
5638;SDS011;2841;44.526;11.360;2022-08-18T13:37:36;2.00;;;0.80;;
5638;SDS011;2841;44.526;11.360;2022-08-18T13:40:05;3.83;;;1.17;;
5638;SDS011;2841;44.526;11.360;2022-08-18T13:42:39;3.93;;;1.40;;
5638;SDS011;2841;44.526;11.360;2022-08-18T13:45:07;3.20;;;1.37;;
5638;SDS011;2841;44.526;11.360;2022-08-18T13:47:37;3.73;;;1.33;;
5638;SDS011;2841;44.526;11.360;2022-08-18T13:50:05;3.40;;;1.03;;
5638;SDS011;2841;44.526;11.360;2022-08-18T13:52:34;7.00;;;0.97;;
5638;SDS011;2841;44.526;11.360;2022-08-18T13:55:02;2.20;;;1.00;;
5638;SDS011;2841;44.526;11.360;2022-08-18T13:57:33;8.30;;;1.13;;
5638;SDS011;2841;44.526;11.360;2022-08-18T14:00:00;6.10;;;0.90;;
5638;SDS011;2841;44.526;11.360;2022-08-18T14:02:27;3.73;;;0.90;;
5638;SDS011;2841;44.526;11.360;2022-08-18T14:04:54;3.10;;;1.03;;
5638;SDS011;2841;44.526;11.360;2022-08-18T14:07:21;4.23;;;1.03;;
5638;SDS011;2841;44.526;11.360;2022-08-18T14:09:48;2.67;;;1.03;;
5638;SDS011;2841;44.526;11.360;2022-08-18T14:12:18;2.60;;;0.90;;
5638;SDS011;2841;44.526;11.360;2022-08-18T14:14:48;2.50;;;0.90;;
5638;SDS011;2841;44.526;11.360;2022-08-18T14:17:16;2.33;;;0.80;;
5638;SDS011;2841;44.526;11.360;2022-08-18T14:19:43;3.30;;;1.23;;
5638;SDS011;2841;44.526;11.360;2022-08-18T14:22:27;2.03;;;1.10;;
5638;SDS011;2841;44.526;11.360;2022-08-18T14:25:11;2.50;;;0.90;;
5638;SDS011;2841;44.526;11.360;2022-08-18T14:27:57;3.83;;;1.13;;
5638;SDS011;2841;44.526;11.360;2022-08-18T14:30:24;6.50;;;0.87;;
5638;SDS011;2841;44.526;11.360;2022-08-18T14:32:51;2.60;;;0.90;;
5638;SDS011;2841;44.526;11.360;2022-08-18T14:35:19;3.40;;;1.07;;
5638;SDS011;2841;44.526;11.360;2022-08-18T14:37:47;6.87;;;1.10;;
5638;SDS011;2841;44.526;11.360;2022-08-18T14:40:14;4.87;;;1.37;;
5638;SDS011;2841;44.526;11.360;2022-08-18T14:42:44;5.87;;;1.20;;
5638;SDS011;2841;44.526;11.360;2022-08-18T14:45:13;1.90;;;0.70;;
5638;SDS011;2841;44.526;11.360;2022-08-18T14:47:40;2.33;;;0.80;;
5638;SDS011;2841;44.526;11.360;2022-08-18T14:50:08;2.13;;;0.80;;
5638;SDS011;2841;44.526;11.360;2022-08-18T14:52:37;3.70;;;0.93;;
5638;SDS011;2841;44.526;11.360;2022-08-18T14:55:05;2.43;;;0.80;;
5638;SDS011;2841;44.526;11.360;2022-08-18T14:57:33;3.23;;;1.10;;
5638;SDS011;2841;44.526;11.360;2022-08-18T15:00:01;1.93;;;0.80;;
5638;SDS011;2841;44.526;11.360;2022-08-18T15:02:31;2.00;;;1.27;;
5638;SDS011;2841;44.526;11.360;2022-08-18T15:04:58;1.40;;;0.60;;
5638;SDS011;2841;44.526;11.360;2022-08-18T15:07:25;16.83;;;1.47;;
5638;SDS011;2841;44.526;11.360;2022-08-18T15:09:52;3.87;;;0.97;;
5638;SDS011;2841;44.526;11.360;2022-08-18T15:12:19;2.47;;;0.77;;
5638;SDS011;2841;44.526;11.360;2022-08-18T15:14:48;5.20;;;1.17;;
5638;SDS011;2841;44.526;11.360;2022-08-18T15:17:15;2.30;;;0.80;;
5638;SDS011;2841;44.526;11.360;2022-08-18T15:19:44;3.53;;;1.10;;
5638;SDS011;2841;44.526;11.360;2022-08-18T15:22:12;5.03;;;0.97;;
5638;SDS011;2841;44.526;11.360;2022-08-18T15:24:57;12.27;;;1.10;;
5638;SDS011;2841;44.526;11.360;2022-08-18T15:27:41;6.50;;;0.97;;
5638;SDS011;2841;44.526;11.360;2022-08-18T15:30:10;3.83;;;1.00;;
5638;SDS011;2841;44.526;11.360;2022-08-18T15:32:40;1.80;;;0.57;;
5638;SDS011;2841;44.526;11.360;2022-08-18T15:35:08;1.80;;;0.90;;
5638;SDS011;2841;44.526;11.360;2022-08-18T15:37:36;2.13;;;0.80;;
5638;SDS011;2841;44.526;11.360;2022-08-18T15:40:07;3.00;;;0.80;;
5638;SDS011;2841;44.526;11.360;2022-08-18T15:42:37;2.07;;;0.67;;
5638;SDS011;2841;44.526;11.360;2022-08-18T15:45:08;1.53;;;0.60;;
5638;SDS011;2841;44.526;11.360;2022-08-18T15:47:37;3.00;;;1.13;;
5638;SDS011;2841;44.526;11.360;2022-08-18T15:50:05;2.17;;;0.80;;
5638;SDS011;2841;44.526;11.360;2022-08-18T15:52:34;2.37;;;1.07;;
5638;SDS011;2841;44.526;11.360;2022-08-18T15:55:01;3.63;;;0.67;;
5638;SDS011;2841;44.526;11.360;2022-08-18T15:57:29;3.00;;;1.10;;
5638;SDS011;2841;44.526;11.360;2022-08-18T15:59:56;1.50;;;0.53;;
5638;SDS011;2841;44.526;11.360;2022-08-18T16:02:23;4.67;;;1.00;;